Time;durP1;ratioP1;P1;durP2;ratioP2;P2;SDS_P1;SDS_P2;PMS_P1;PMS_P2;Temp;Humidity;BMP_temperature;BMP_pressure;BME280_temperature;BME280_humidity;BME280_pressure;Samples;Min_cycle;Max_cycle;Signal;HPM_P1;HPM_P2
2022/03/23 00:00:48;;;;;;;29.58;7.45;;;;;;;;;;5070213;28;20204;-69
2022/03/23 00:03:16;;;;;;;24.00;7.40;;;;;;;;;;5072193;28;20641;-70
2022/03/23 00:05:45;;;;;;;27.58;8.43;;;;;;;;;;5073592;28;20264;-70
2022/03/23 00:08:13;;;;;;;21.58;7.15;;;;;;;;;;5073514;28;20208;-69
2022/03/23 00:10:40;;;;;;;23.77;7.32;;;;;;;;;;5073552;28;20749;-70
2022/03/23 00:13:09;;;;;;;21.90;7.32;;;;;;;;;;5073346;28;20251;-69
2022/03/23 00:15:36;;;;;;;23.52;6.95;;;;;;;;;;5073644;28;20299;-70
2022/03/23 00:18:04;;;;;;;29.20;8.25;;;;;;;;;;5073513;28;20586;-69
2022/03/23 00:20:32;;;;;;;32.53;6.25;;;;;;;;;;5073455;28;20205;-69
2022/03/23 00:23:00;;;;;;;30.17;7.82;;;;;;;;;;5073260;28;20660;-72
2022/03/23 00:25:28;;;;;;;31.20;7.50;;;;;;;;;;5073912;28;20227;-69
2022/03/23 00:27:55;;;;;;;31.48;6.95;;;;;;;;;;5073471;28;20208;-70
2022/03/23 00:30:24;;;;;;;22.45;6.60;;;;;;;;;;5073345;28;20211;-69
2022/03/23 00:32:52;;;;;;;35.00;7.43;;;;;;;;;;5073467;28;20295;-70
2022/03/23 00:35:20;;;;;;;26.77;8.07;;;;;;;;;;5072809;28;20285;-69
2022/03/23 00:37:47;;;;;;;23.25;7.05;;;;;;;;;;5073154;28;20736;-69
2022/03/23 00:40:16;;;;;;;33.75;7.43;;;;;;;;;;5073051;28;20239;-70
2022/03/23 00:42:44;;;;;;;28.25;9.02;;;;;;;;;;5073133;28;20212;-69
2022/03/23 00:45:12;;;;;;;26.30;7.40;;;;;;;;;;5072917;28;20216;-70
2022/03/23 00:47:40;;;;;;;23.33;7.40;;;;;;;;;;5073141;28;20208;-69
2022/03/23 00:50:08;;;;;;;25.25;7.60;;;;;;;;;;5073180;28;20286;-69
2022/03/23 00:52:36;;;;;;;19.95;6.60;;;;;;;;;;5073194;28;20719;-69
2022/03/23 00:55:03;;;;;;;22.08;7.07;;;;;;;;;;5072673;28;20225;-69
2022/03/23 00:57:32;;;;;;;28.00;7.60;;;;;;;;;;5072882;28;20208;-70
2022/03/23 00:59:59;;;;;;;24.17;7.60;;;;;;;;;;5073106;28;20209;-69
2022/03/23 01:02:27;;;;;;;25.13;8.10;;;;;;;;;;5072637;28;20216;-69
2022/03/23 01:04:55;;;;;;;21.52;6.93;;;;;;;;;;5072603;28;20723;-69
2022/03/23 01:07:23;;;;;;;28.92;7.55;;;;;;;;;;5072473;28;20215;-69
2022/03/23 01:09:50;;;;;;;27.88;7.55;;;;;;;;;;5072684;28;20219;-69
2022/03/23 01:12:18;;;;;;;21.08;6.10;;;;;;;;;;5072526;28;20205;-69
2022/03/23 01:14:46;;;;;;;30.85;8.63;;;;;;;;;;5072127;28;20291;-69
2022/03/23 01:17:14;;;;;;;27.25;7.72;;;;;;;;;;5072042;28;20217;-69
2022/03/23 01:19:41;;;;;;;27.60;7.72;;;;;;;;;;5072334;28;20674;-70
2022/03/23 01:22:10;;;;;;;28.02;7.35;;;;;;;;;;5072347;28;20669;-68
2022/03/23 01:24:37;;;;;;;21.38;7.88;;;;;;;;;;5072404;28;20214;-69
2022/03/23 01:27:05;;;;;;;28.27;8.25;;;;;;;;;;5072119;28;20219;-69
2022/03/23 01:29:32;;;;;;;38.10;7.22;;;;;;;;;;5072028;28;20213;-69
2022/03/23 01:32:01;;;;;;;30.73;9.05;;;;;;;;;;5072268;28;20205;-69
2022/03/23 01:34:29;;;;;;;26.60;8.20;;;;;;;;;;5071955;28;20239;-69
2022/03/23 01:36:56;;;;;;;21.33;7.10;;;;;;;;;;5072045;28;20204;-69
2022/03/23 01:39:24;;;;;;;26.70;6.93;;;;;;;;;;5071858;28;20305;-69
2022/03/23 01:41:52;;;;;;;19.95;6.60;;;;;;;;;;5071980;28;20292;-69
2022/03/23 01:44:20;;;;;;;42.75;7.25;;;;;;;;;;5071795;28;20212;-69
2022/03/23 01:47:02;;;;;;;22.10;7.20;;;;;;;;;;5071956;28;20672;-69
2022/03/23 01:49:29;;;;;;;27.90;8.20;;;;;;;;;;5067023;28;20694;-69
2022/03/23 01:51:57;;;;;;;30.05;8.65;;;;;;;;;;5071761;28;20213;-69
2022/03/23 01:54:26;;;;;;;33.78;7.70;;;;;;;;;;5071655;28;20596;-69
2022/03/23 01:56:54;;;;;;;24.40;8.32;;;;;;;;;;5071532;28;20217;-69
2022/03/23 01:59:21;;;;;;;25.75;7.93;;;;;;;;;;5071535;28;20597;-69
2022/03/23 02:01:49;;;;;;;30.50;7.40;;;;;;;;;;5071491;28;20208;-69
2022/03/23 02:04:19;;;;;;;27.60;7.82;;;;;;;;;;5071527;28;20653;-69
2022/03/23 02:06:48;;;;;;;21.50;6.90;;;;;;;;;;5071324;28;20248;-69
2022/03/23 02:09:15;;;;;;;23.50;7.53;;;;;;;;;;5071588;28;20209;-69
2022/03/23 02:11:44;;;;;;;22.63;7.35;;;;;;;;;;5071505;28;20204;-69
2022/03/23 02:14:12;;;;;;;24.13;8.23;;;;;;;;;;5071328;28;20232;-69
2022/03/23 02:16:43;;;;;;;35.67;9.48;;;;;;;;;;5071314;28;20296;-69
2022/03/23 02:19:10;;;;;;;24.48;7.90;;;;;;;;;;5071401;28;20230;-68
2022/03/23 02:21:44;;;;;;;27.50;7.35;;;;;;;;;;5071141;28;20208;-69
2022/03/23 02:24:14;;;;;;;26.88;6.90;;;;;;;;;;5071120;28;20215;-69
2022/03/23 02:26:41;;;;;;;21.08;7.38;;;;;;;;;;5070466;28;20212;-69
2022/03/23 02:29:09;;;;;;;24.98;7.80;;;;;;;;;;5070766;28;20692;-68
2022/03/23 02:31:37;;;;;;;19.40;6.95;;;;;;;;;;5071092;28;20665;-69
2022/03/23 02:34:05;;;;;;;21.38;6.85;;;;;;;;;;5070686;28;20592;-69
2022/03/23 02:36:32;;;;;;;24.73;7.60;;;;;;;;;;5071102;28;20207;-69
2022/03/23 02:39:01;;;;;;;25.02;7.85;;;;;;;;;;5070588;28;20215;-69
2022/03/23 02:41:30;;;;;;;26.80;7.75;;;;;;;;;;5070802;28;20653;-70
2022/03/23 02:43:58;;;;;;;27.13;8.30;;;;;;;;;;5070835;28;20220;-69
2022/03/23 02:46:28;;;;;;;25.55;7.88;;;;;;;;;;5070836;28;20333;-69
2022/03/23 02:48:56;;;;;;;33.35;6.85;;;;;;;;;;5070664;28;20212;-69
2022/03/23 02:51:23;;;;;;;28.08;7.00;;;;;;;;;;5070989;28;20213;-68
2022/03/23 03:02:18;;;;;;;19.98;5.97;;;;;;;;;;5066866;28;20210;-69
2022/03/23 03:04:45;;;;;;;24.58;8.25;;;;;;;;;;5070646;28;20237;-70
2022/03/23 03:07:13;;;;;;;23.48;7.45;;;;;;;;;;5070380;28;20211;-69
2022/03/23 03:09:40;;;;;;;20.88;6.70;;;;;;;;;;5070595;28;20212;-70
2022/03/23 03:12:11;;;;;;;25.13;7.50;;;;;;;;;;5070505;28;20594;-68
2022/03/23 03:14:38;;;;;;;39.33;8.20;;;;;;;;;;5070484;28;20239;-69
2022/03/23 03:17:06;;;;;;;28.52;7.22;;;;;;;;;;5070202;28;20209;-69
2022/03/23 03:19:35;;;;;;;24.15;7.40;;;;;;;;;;5070533;28;20595;-69
2022/03/23 03:22:02;;;;;;;28.38;7.10;;;;;;;;;;5070422;28;20247;-69
2022/03/23 03:24:29;;;;;;;26.63;7.60;;;;;;;;;;5070441;28;20675;-68
2022/03/23 03:26:57;;;;;;;28.55;7.40;;;;;;;;;;5070547;28;20211;-69
2022/03/23 03:29:26;;;;;;;26.73;7.72;;;;;;;;;;5070293;28;20212;-68
2022/03/23 03:31:54;;;;;;;27.63;7.30;;;;;;;;;;5070307;28;20693;-69
2022/03/23 03:34:21;;;;;;;24.42;7.65;;;;;;;;;;5063765;28;20620;-69
2022/03/23 03:36:49;;;;;;;23.13;6.82;;;;;;;;;;5071968;28;20656;-68
2022/03/23 03:39:17;;;;;;;25.80;8.75;;;;;;;;;;5074129;28;20205;-69
2022/03/23 03:41:45;;;;;;;21.02;6.07;;;;;;;;;;5074150;28;20216;-69
2022/03/23 03:44:12;;;;;;;22.65;7.07;;;;;;;;;;5074258;28;20208;-69
2022/03/23 03:46:41;;;;;;;21.73;6.95;;;;;;;;;;5074286;28;20266;-69
2022/03/23 03:49:09;;;;;;;23.88;7.90;;;;;;;;;;5073916;28;20208;-69
2022/03/23 03:51:36;;;;;;;29.65;8.30;;;;;;;;;;5074270;28;20212;-69
2022/03/23 03:54:05;;;;;;;24.20;7.57;;;;;;;;;;5075570;28;20211;-69
2022/03/23 03:56:32;;;;;;;24.60;7.32;;;;;;;;;;5067696;28;20260;-69
2022/03/23 03:59:00;;;;;;;30.20;7.30;;;;;;;;;;5073785;28;20223;-69
2022/03/23 04:01:27;;;;;;;25.13;7.82;;;;;;;;;;5073978;28;20201;-69
2022/03/23 04:03:56;;;;;;;30.65;7.78;;;;;;;;;;5073605;28;20200;-68
2022/03/23 04:06:23;;;;;;;28.20;8.48;;;;;;;;;;5073603;28;20244;-69
2022/03/23 04:08:51;;;;;;;21.25;6.50;;;;;;;;;;5074013;28;20277;-69
2022/03/23 04:11:19;;;;;;;21.05;6.78;;;;;;;;;;5073626;28;20212;-69
2022/03/23 04:13:47;;;;;;;26.30;7.78;;;;;;;;;;5073627;28;20225;-68
2022/03/23 04:16:15;;;;;;;28.42;8.30;;;;;;;;;;5073400;28;20231;-70
2022/03/23 04:18:42;;;;;;;34.20;9.05;;;;;;;;;;5073787;28;20213;-69
2022/03/23 04:21:11;;;;;;;23.65;7.05;;;;;;;;;;5073318;28;20204;-68
2022/03/23 04:23:38;;;;;;;28.42;7.80;;;;;;;;;;5073698;28;20208;-69
2022/03/23 04:26:05;;;;;;;21.88;6.82;;;;;;;;;;5073518;28;20208;-68
2022/03/23 04:28:33;;;;;;;22.20;7.32;;;;;;;;;;5073334;28;20673;-69
2022/03/23 04:31:01;;;;;;;21.58;6.28;;;;;;;;;;5073412;28;20583;-70
2022/03/23 04:33:28;;;;;;;26.45;7.05;;;;;;;;;;5073249;28;20258;-68
2022/03/23 04:35:56;;;;;;;27.45;7.18;;;;;;;;;;5073159;28;20232;-69
2022/03/23 04:38:25;;;;;;;30.27;8.68;;;;;;;;;;5066430;28;20216;-69
2022/03/23 04:40:52;;;;;;;26.52;8.75;;;;;;;;;;5073203;28;20291;-69
2022/03/23 04:43:20;;;;;;;83.40;23.25;;;;;;;;;;5072827;28;20291;-68
2022/03/23 04:45:48;;;;;;;948.47;399.70;;;;;;;;;;5073410;28;20208;-68
2022/03/23 04:48:15;;;;;;;489.70;157.27;;;;;;;;;;5072164;28;20212;-69
2022/03/23 04:50:43;;;;;;;413.88;128.65;;;;;;;;;;5072897;28;20205;-69
2022/03/23 04:53:10;;;;;;;115.47;38.15;;;;;;;;;;5072683;28;20599;-69
2022/03/23 04:55:39;;;;;;;54.03;18.48;;;;;;;;;;5072798;28;20324;-69
2022/03/23 04:58:06;;;;;;;44.67;13.85;;;;;;;;;;5073005;28;20296;-69
2022/03/23 05:00:34;;;;;;;34.58;13.70;;;;;;;;;;5072529;28;20204;-69
2022/03/23 05:03:04;;;;;;;37.20;11.57;;;;;;;;;;5072839;28;20240;-71
2022/03/23 05:05:31;;;;;;;32.65;10.95;;;;;;;;;;5072476;28;20296;-71
2022/03/23 05:07:58;;;;;;;28.77;9.45;;;;;;;;;;5072507;28;20586;-70
2022/03/23 05:10:27;;;;;;;24.67;7.70;;;;;;;;;;5072332;28;20207;-72
2022/03/23 05:12:56;;;;;;;25.90;8.63;;;;;;;;;;5072542;28;20231;-70
2022/03/23 05:15:23;;;;;;;34.50;13.73;;;;;;;;;;5072192;28;20499;-70
2022/03/23 05:17:51;;;;;;;26.40;10.10;;;;;;;;;;5072410;28;20234;-71
2022/03/23 05:20:20;;;;;;;28.52;11.88;;;;;;;;;;5072431;28;20216;-70
2022/03/23 05:22:47;;;;;;;30.83;9.82;;;;;;;;;;5072067;28;20208;-70
2022/03/23 05:25:14;;;;;;;30.55;9.35;;;;;;;;;;5071855;28;20219;-70
2022/03/23 05:27:42;;;;;;;23.37;9.10;;;;;;;;;;5072020;28;20206;-70
2022/03/23 05:30:12;;;;;;;22.43;7.50;;;;;;;;;;5071918;28;20449;-69
2022/03/23 05:32:40;;;;;;;23.57;9.03;;;;;;;;;;5071955;28;20460;-68
2022/03/23 05:35:09;;;;;;;31.37;10.60;;;;;;;;;;5071776;28;20528;-68
2022/03/23 05:37:38;;;;;;;24.80;7.93;;;;;;;;;;5071862;28;20466;-68
2022/03/23 05:40:06;;;;;;;28.30;9.00;;;;;;;;;;5072067;28;20986;-68
2022/03/23 05:42:33;;;;;;;22.87;8.60;;;;;;;;;;5071818;28;20446;-69
2022/03/23 05:45:00;;;;;;;26.57;9.10;;;;;;;;;;5071692;28;20532;-68
2022/03/23 05:47:29;;;;;;;26.23;8.80;;;;;;;;;;5071692;28;20454;-69
2022/03/23 05:49:57;;;;;;;28.67;9.60;;;;;;;;;;5071560;28;20457;-69
2022/03/23 05:52:24;;;;;;;26.77;9.17;;;;;;;;;;5071915;28;20470;-68
2022/03/23 05:54:53;;;;;;;28.00;10.27;;;;;;;;;;5071509;28;20454;-69
2022/03/23 05:57:21;;;;;;;30.93;10.70;;;;;;;;;;5071165;28;21018;-68
2022/03/23 05:59:48;;;;;;;35.90;11.30;;;;;;;;;;5070398;28;20970;-68
2022/03/23 06:02:16;;;;;;;31.43;12.60;;;;;;;;;;5071423;28;20447;-69
2022/03/23 06:04:46;;;;;;;28.37;11.70;;;;;;;;;;5071222;28;20447;-67
2022/03/23 06:07:13;;;;;;;33.50;13.10;;;;;;;;;;5071360;28;20834;-69
2022/03/23 06:09:40;;;;;;;33.73;13.10;;;;;;;;;;5071409;28;20439;-68
2022/03/23 06:12:12;;;;;;;27.17;9.83;;;;;;;;;;5071319;28;20451;-68
2022/03/23 06:14:42;;;;;;;34.17;10.50;;;;;;;;;;5071144;28;21006;-68
2022/03/23 06:17:09;;;;;;;30.80;12.20;;;;;;;;;;5070788;28;20925;-68
2022/03/23 06:19:37;;;;;;;34.40;11.40;;;;;;;;;;5071350;28;20885;-68
2022/03/23 06:22:06;;;;;;;26.73;10.37;;;;;;;;;;5071202;28;20497;-68
2022/03/23 06:24:33;;;;;;;31.70;10.43;;;;;;;;;;5070907;28;20454;-68
2022/03/23 06:27:01;;;;;;;27.43;9.53;;;;;;;;;;5070668;28;20459;-69
2022/03/23 06:29:30;;;;;;;32.13;12.17;;;;;;;;;;5071030;28;20540;-72
2022/03/23 06:31:57;;;;;;;42.47;16.20;;;;;;;;;;5070852;28;20443;-71
2022/03/23 06:34:25;;;;;;;24.50;10.50;;;;;;;;;;5070965;28;20450;-71
2022/03/23 06:36:52;;;;;;;70.10;33.17;;;;;;;;;;5070723;28;20866;-72
2022/03/23 06:39:21;;;;;;;127.00;56.13;;;;;;;;;;5070638;28;20458;-72
2022/03/23 06:41:48;;;;;;;25.30;10.90;;;;;;;;;;5070746;28;20458;-71
2022/03/23 06:44:16;;;;;;;95.93;43.70;;;;;;;;;;5070571;28;20454;-72
2022/03/23 06:46:44;;;;;;;31.30;12.57;;;;;;;;;;5071078;28;20447;-71
2022/03/23 06:49:12;;;;;;;26.53;8.40;;;;;;;;;;5070390;28;21220;-72
2022/03/23 06:51:39;;;;;;;20.70;6.43;;;;;;;;;;5070729;28;21036;-71
2022/03/23 06:54:06;;;;;;;19.80;6.67;;;;;;;;;;5070614;28;20454;-72
2022/03/23 06:56:35;;;;;;;19.40;7.23;;;;;;;;;;5070344;28;20575;-72
2022/03/23 06:59:03;;;;;;;20.87;6.70;;;;;;;;;;5070231;28;20457;-72
2022/03/23 07:01:31;;;;;;;20.40;5.90;;;;;;;;;;5070654;28;20475;-71
2022/03/23 07:04:00;;;;;;;27.97;7.23;;;;;;;;;;5070394;28;20967;-72
2022/03/23 07:06:27;;;;;;;22.77;8.33;;;;;;;;;;5070190;28;20489;-72
2022/03/23 07:11:41;;;;;;;23.00;6.83;;;;;;;;;;5070088;28;20450;-71
2022/03/23 07:14:08;;;;;;;20.70;6.67;;;;;;;;;;5070225;28;20808;-72
2022/03/23 07:16:36;;;;;;;21.53;6.40;;;;;;;;;;5070179;28;21121;-72
2022/03/23 07:19:04;;;;;;;22.67;5.00;;;;;;;;;;5070149;28;20454;-71
2022/03/23 07:21:32;;;;;;;19.17;5.40;;;;;;;;;;5070175;28;20457;-72
2022/03/23 07:23:59;;;;;;;19.50;5.77;;;;;;;;;;5070404;28;20462;-71
2022/03/23 07:26:27;;;;;;;18.43;5.23;;;;;;;;;;5070402;28;20462;-72
2022/03/23 07:28:56;;;;;;;21.53;5.93;;;;;;;;;;5070133;28;20458;-72
2022/03/23 07:31:23;;;;;;;21.10;6.60;;;;;;;;;;5070289;28;20513;-71
2022/03/23 07:33:51;;;;;;;19.30;6.30;;;;;;;;;;5070232;28;20520;-71
2022/03/23 07:36:19;;;;;;;21.80;7.63;;;;;;;;;;5069975;28;20566;-72
2022/03/23 07:38:47;;;;;;;15.77;4.20;;;;;;;;;;5070068;28;20533;-72
2022/03/23 07:41:14;;;;;;;20.73;6.43;;;;;;;;;;5069999;28;20435;-72
2022/03/23 07:43:42;;;;;;;19.17;5.30;;;;;;;;;;5070436;28;20546;-72
2022/03/23 07:46:10;;;;;;;18.37;5.20;;;;;;;;;;5070093;28;20458;-72
2022/03/23 07:48:38;;;;;;;16.93;4.87;;;;;;;;;;5069947;28;20522;-74
2022/03/23 07:51:05;;;;;;;17.93;5.20;;;;;;;;;;5070057;28;20451;-72
2022/03/23 07:53:33;;;;;;;29.47;6.33;;;;;;;;;;5069976;28;20454;-72
2022/03/23 07:56:01;;;;;;;18.87;5.17;;;;;;;;;;5070141;28;20490;-72
2022/03/23 07:58:29;;;;;;;17.57;4.60;;;;;;;;;;5069957;28;20826;-72
2022/03/23 08:00:57;;;;;;;17.20;4.57;;;;;;;;;;5069931;28;20533;-72
2022/03/23 08:03:26;;;;;;;21.43;5.67;;;;;;;;;;5063235;28;20455;-71
2022/03/23 08:05:53;;;;;;;18.43;5.00;;;;;;;;;;5069861;28;20485;-72
2022/03/23 08:08:21;;;;;;;19.00;5.80;;;;;;;;;;5070004;28;20450;-71
2022/03/23 08:10:50;;;;;;;19.50;5.20;;;;;;;;;;5069819;28;20447;-71
2022/03/23 08:13:18;;;;;;;18.13;5.67;;;;;;;;;;5069458;28;21014;-72
2022/03/23 08:15:45;;;;;;;19.50;4.97;;;;;;;;;;5069940;28;20525;-71
2022/03/23 08:18:15;;;;;;;22.10;6.53;;;;;;;;;;5069887;28;20517;-72
2022/03/23 08:20:44;;;;;;;25.63;5.60;;;;;;;;;;5069673;28;21060;-72
2022/03/23 08:23:16;;;;;;;19.97;7.30;;;;;;;;;;5069963;28;20445;-71
2022/03/23 08:25:44;;;;;;;19.90;6.17;;;;;;;;;;5067390;28;20449;-72
2022/03/23 08:28:14;;;;;;;21.33;6.43;;;;;;;;;;5073300;28;20490;-71
2022/03/23 08:30:43;;;;;;;25.30;6.50;;;;;;;;;;5073381;28;20477;-71
2022/03/23 08:33:10;;;;;;;19.90;6.77;;;;;;;;;;5073040;28;20516;-71
2022/03/23 08:35:39;;;;;;;25.80;7.33;;;;;;;;;;5073071;28;20451;-69
2022/03/23 08:38:08;;;;;;;20.43;5.13;;;;;;;;;;5073055;28;20492;-69
2022/03/23 08:40:36;;;;;;;19.60;5.43;;;;;;;;;;5073016;28;20474;-69
2022/03/23 08:43:04;;;;;;;19.17;3.67;;;;;;;;;;5072633;28;20454;-69
2022/03/23 08:45:33;;;;;;;15.40;2.97;;;;;;;;;;5073259;28;20443;-69
2022/03/23 08:48:02;;;;;;;19.73;4.17;;;;;;;;;;5073010;28;20455;-69
2022/03/23 08:50:29;;;;;;;16.60;3.70;;;;;;;;;;5072936;28;20582;-69
2022/03/23 08:52:57;;;;;;;15.23;3.30;;;;;;;;;;5072923;28;20447;-70
2022/03/23 08:55:28;;;;;;;21.47;3.43;;;;;;;;;;5072618;28;20450;-69
2022/03/23 08:57:55;;;;;;;16.60;3.70;;;;;;;;;;5072582;28;20482;-69
2022/03/23 09:00:23;;;;;;;18.97;3.63;;;;;;;;;;5072633;28;20450;-69
2022/03/23 09:02:51;;;;;;;15.47;3.47;;;;;;;;;;5072851;28;21058;-69
2022/03/23 09:05:19;;;;;;;18.47;4.67;;;;;;;;;;5072496;28;20486;-69
2022/03/23 09:07:47;;;;;;;15.53;3.37;;;;;;;;;;5072489;28;20481;-69
2022/03/23 09:10:15;;;;;;;13.93;2.63;;;;;;;;;;5072708;28;20445;-70
2022/03/23 09:12:44;;;;;;;15.50;3.37;;;;;;;;;;5072575;28;20440;-71
2022/03/23 09:15:13;;;;;;;19.87;4.17;;;;;;;;;;5072209;28;20446;-71
2022/03/23 09:17:40;;;;;;;16.00;2.73;;;;;;;;;;5072162;28;20983;-71
2022/03/23 09:20:10;;;;;;;14.70;3.07;;;;;;;;;;5072289;28;20457;-71
2022/03/23 09:22:38;;;;;;;17.67;3.20;;;;;;;;;;5072435;28;21122;-70
2022/03/23 09:25:06;;;;;;;13.97;3.00;;;;;;;;;;5071856;28;20447;-70
2022/03/23 09:27:34;;;;;;;16.53;3.10;;;;;;;;;;5072087;28;20487;-70
2022/03/23 09:30:03;;;;;;;17.07;3.17;;;;;;;;;;5072142;28;20464;-70
2022/03/23 09:32:31;;;;;;;16.10;3.57;;;;;;;;;;5072053;28;20905;-69
2022/03/23 09:34:58;;;;;;;19.80;3.43;;;;;;;;;;5071661;28;20457;-73
2022/03/23 09:40:12;;;;;;;17.43;3.07;;;;;;;;;;5067019;28;20460;-69
2022/03/23 09:42:40;;;;;;;15.83;3.50;;;;;;;;;;5071943;28;21044;-70
2022/03/23 09:45:10;;;;;;;17.50;3.70;;;;;;;;;;5071802;28;20523;-70
2022/03/23 09:47:38;;;;;;;16.90;3.73;;;;;;;;;;5071584;28;20463;-72
2022/03/23 09:50:06;;;;;;;16.23;3.33;;;;;;;;;;5071955;28;20916;-71
2022/03/23 09:52:34;;;;;;;19.75;2.60;;;;;;;;;;5071672;28;20202;-71
2022/03/23 09:55:01;;;;;;;17.73;2.65;;;;;;;;;;5071402;28;20204;-71
2022/03/23 09:57:28;;;;;;;13.98;2.60;;;;;;;;;;5071506;28;20224;-71
2022/03/23 09:59:56;;;;;;;18.25;3.42;;;;;;;;;;5071407;28;20209;-70
2022/03/23 10:02:44;;;;;;;15.40;2.70;;;;;;;;;;5071635;28;20211;-70
2022/03/23 10:05:44;;;;;;;18.07;3.73;;;;;;;;;;5071134;28;20698;-69
2022/03/23 10:08:25;;;;;;;19.80;2.57;;;;;;;;;;5071452;28;20437;-70
2022/03/23 10:11:06;;;;;;;17.20;4.07;;;;;;;;;;5071509;28;20474;-71
2022/03/23 10:14:06;;;;;;;17.70;4.33;;;;;;;;;;5071096;28;20477;-70
2022/03/23 10:16:52;;;;;;;15.53;3.13;;;;;;;;;;5071118;28;20539;-70
2022/03/23 10:19:20;;;;;;;23.57;3.53;;;;;;;;;;5070903;28;20459;-69
2022/03/23 10:21:48;;;;;;;15.20;3.20;;;;;;;;;;5070994;28;20459;-70
2022/03/23 10:24:35;;;;;;;18.50;3.80;;;;;;;;;;5071077;28;20451;-70
2022/03/23 10:27:09;;;;;;;16.23;3.33;;;;;;;;;;5070721;28;20472;-70
2022/03/23 10:29:41;;;;;;;16.80;3.17;;;;;;;;;;5070896;28;20807;-70
2022/03/23 10:32:10;;;;;;;15.67;3.10;;;;;;;;;;5071194;28;20459;-69
2022/03/23 10:34:41;;;;;;;13.60;2.07;;;;;;;;;;5071017;28;20850;-70
2022/03/23 10:37:08;;;;;;;16.80;3.10;;;;;;;;;;5070532;28;20496;-70
2022/03/23 10:39:40;;;;;;;14.50;3.17;;;;;;;;;;5070614;28;20449;-69
2022/03/23 10:42:09;;;;;;;17.47;2.90;;;;;;;;;;5070939;28;20464;-70
2022/03/23 10:44:36;;;;;;;15.43;3.57;;;;;;;;;;5070870;28;20532;-70
2022/03/23 10:47:04;;;;;;;16.27;2.33;;;;;;;;;;5070003;28;20446;-70
2022/03/23 10:49:33;;;;;;;14.60;2.53;;;;;;;;;;5070710;28;20469;-70
2022/03/23 10:52:14;;;;;;;13.10;2.33;;;;;;;;;;5070531;28;20461;-70
2022/03/23 10:54:55;;;;;;;16.17;3.03;;;;;;;;;;5070716;28;20457;-70
2022/03/23 10:57:23;;;;;;;17.13;1.73;;;;;;;;;;5070266;28;20476;-70
2022/03/23 10:59:50;;;;;;;13.83;2.43;;;;;;;;;;5070461;28;20461;-70
2022/03/23 11:02:18;;;;;;;15.20;2.70;;;;;;;;;;5070473;28;20971;-70
2022/03/23 11:04:50;;;;;;;19.60;2.70;;;;;;;;;;5070276;28;20470;-69
2022/03/23 11:07:25;;;;;;;15.70;2.67;;;;;;;;;;5070445;28;20454;-70
2022/03/23 11:18:11;;;;;;;17.87;2.77;;;;;;;;;;5070392;28;20566;-70
2022/03/23 11:20:45;;;;;;;14.80;3.30;;;;;;;;;;5070301;28;20443;-70
2022/03/23 11:23:20;;;;;;;14.17;2.97;;;;;;;;;;5069949;28;20973;-70
2022/03/23 11:25:51;;;;;;;17.07;3.87;;;;;;;;;;5070872;28;20481;-70
2022/03/23 11:28:19;;;;;;;16.73;3.70;;;;;;;;;;5070196;28;20462;-70
2022/03/23 11:30:47;;;;;;;15.13;3.33;;;;;;;;;;5070094;28;20461;-70
2022/03/23 11:33:17;;;;;;;17.27;4.10;;;;;;;;;;5070045;28;20446;-70
2022/03/23 11:35:48;;;;;;;17.50;5.03;;;;;;;;;;5070080;28;20445;-70
2022/03/23 11:38:16;;;;;;;16.83;4.20;;;;;;;;;;5070466;28;20978;-70
2022/03/23 11:40:45;;;;;;;18.77;5.83;;;;;;;;;;5070303;28;20808;-70
2022/03/23 11:43:16;;;;;;;15.83;3.27;;;;;;;;;;5070053;28;20463;-70
2022/03/23 11:45:45;;;;;;;16.40;3.97;;;;;;;;;;5070015;28;20466;-71
2022/03/23 11:48:16;;;;;;;16.47;4.63;;;;;;;;;;5070025;28;20457;-71
2022/03/23 11:50:49;;;;;;;17.27;5.40;;;;;;;;;;5070128;28;20451;-70
2022/03/23 11:53:21;;;;;;;19.87;3.40;;;;;;;;;;5063287;28;20437;-70
2022/03/23 11:55:51;;;;;;;17.07;2.47;;;;;;;;;;5070059;28;20445;-71
2022/03/23 11:58:22;;;;;;;17.60;3.63;;;;;;;;;;5072395;28;20493;-70
2022/03/23 12:00:54;;;;;;;18.90;3.80;;;;;;;;;;5073765;28;20435;-70
2022/03/23 12:03:39;;;;;;;14.20;3.00;;;;;;;;;;5073777;28;20447;-70
2022/03/23 12:06:09;;;;;;;13.40;2.43;;;;;;;;;;5063512;28;20515;-70
2022/03/23 12:08:49;;;;;;;14.20;2.60;;;;;;;;;;5073899;28;20447;-69
2022/03/23 12:11:41;;;;;;;14.00;2.30;;;;;;;;;;5073315;28;20446;-70
2022/03/23 12:14:20;;;;;;;17.50;2.93;;;;;;;;;;5073455;28;20482;-70
2022/03/23 12:17:07;;;;;;;19.20;2.60;;;;;;;;;;5073497;28;20450;-70
2022/03/23 12:19:35;;;;;;;14.20;2.30;;;;;;;;;;5073340;28;20438;-70
2022/03/23 12:22:15;;;;;;;14.27;3.23;;;;;;;;;;5073762;28;20896;-70
2022/03/23 12:24:48;;;;;;;14.10;2.03;;;;;;;;;;5073488;28;20454;-70
2022/03/23 12:27:19;;;;;;;14.10;2.40;;;;;;;;;;5073027;28;20830;-70
2022/03/23 12:29:51;;;;;;;13.67;2.10;;;;;;;;;;5073312;28;20438;-69
2022/03/23 12:32:19;;;;;;;17.00;3.90;;;;;;;;;;5073244;28;20515;-70
2022/03/23 12:34:47;;;;;;;15.33;3.20;;;;;;;;;;5073360;28;20455;-70
2022/03/23 12:37:16;;;;;;;15.60;2.07;;;;;;;;;;5072983;28;20457;-70
2022/03/23 12:39:44;;;;;;;14.93;2.50;;;;;;;;;;5073067;28;20443;-70
2022/03/23 12:42:23;;;;;;;15.33;2.47;;;;;;;;;;5073114;28;20450;-70
2022/03/23 12:45:03;;;;;;;15.10;2.60;;;;;;;;;;5073416;28;20453;-70
2022/03/23 12:47:32;;;;;;;15.20;2.00;;;;;;;;;;5073110;28;20458;-70
2022/03/23 12:58:25;;;;;;;15.43;3.17;;;;;;;;;;5072738;28;20469;-70
2022/03/23 13:00:56;;;;;;;13.90;2.77;;;;;;;;;;5072924;28;20469;-71
2022/03/23 13:03:42;;;;;;;16.00;2.30;;;;;;;;;;5066178;28;20979;-70
2022/03/23 13:06:11;;;;;;;15.13;2.43;;;;;;;;;;5067813;28;20482;-70
2022/03/23 13:08:47;;;;;;;14.90;3.03;;;;;;;;;;5072358;28;20832;-70
2022/03/23 13:11:16;;;;;;;17.63;2.80;;;;;;;;;;5072522;28;20476;-70
2022/03/23 13:13:46;;;;;;;15.93;2.47;;;;;;;;;;5072230;28;20464;-71
2022/03/23 13:16:18;;;;;;;17.13;2.50;;;;;;;;;;5072705;28;20454;-71
2022/03/23 13:18:46;;;;;;;13.73;2.30;;;;;;;;;;5066158;28;20497;-70
2022/03/23 13:21:16;;;;;;;15.53;2.97;;;;;;;;;;5072063;28;20450;-71
2022/03/23 13:23:44;;;;;;;16.23;2.47;;;;;;;;;;5072402;28;20447;-71
2022/03/23 13:26:13;;;;;;;14.77;2.47;;;;;;;;;;5072068;28;20451;-71
2022/03/23 13:28:42;;;;;;;15.60;3.17;;;;;;;;;;5072174;28;20959;-70
2022/03/23 13:31:12;;;;;;;14.73;1.97;;;;;;;;;;5071801;28;20446;-70
2022/03/23 13:33:44;;;;;;;22.17;3.17;;;;;;;;;;5072481;28;20446;-70
2022/03/23 13:36:14;;;;;;;12.13;1.57;;;;;;;;;;5072133;28;20837;-70
2022/03/23 13:38:42;;;;;;;20.33;2.83;;;;;;;;;;5071858;28;20914;-70
2022/03/23 13:43:55;;;;;;;15.43;2.70;;;;;;;;;;5071927;28;21069;-70
2022/03/23 13:46:23;;;;;;;12.80;1.70;;;;;;;;;;5071889;28;20447;-70
2022/03/23 13:48:59;;;;;;;19.80;2.50;;;;;;;;;;5071745;28;20469;-70
2022/03/23 13:51:28;;;;;;;17.10;2.70;;;;;;;;;;5071739;28;20822;-70
2022/03/23 13:53:59;;;;;;;16.43;2.93;;;;;;;;;;5071602;28;21044;-70
2022/03/23 13:56:27;;;;;;;15.50;1.93;;;;;;;;;;5071844;28;20446;-70
2022/03/23 13:58:55;;;;;;;15.10;1.60;;;;;;;;;;5071612;28;20486;-70
2022/03/23 14:01:23;;;;;;;13.43;2.10;;;;;;;;;;5071202;28;20469;-70
2022/03/23 14:03:53;;;;;;;14.00;2.50;;;;;;;;;;5071281;28;20443;-70
2022/03/23 14:06:22;;;;;;;15.80;3.17;;;;;;;;;;5071253;28;20483;-70
2022/03/23 14:08:53;;;;;;;13.80;2.20;;;;;;;;;;5071285;28;20451;-70
2022/03/23 14:11:47;;;;;;;16.47;2.30;;;;;;;;;;5071343;28;20455;-70
2022/03/23 14:14:12;;;;;;;17.30;3.30;;;;;;;;;;5070861;28;20475;-69
2022/03/23 14:16:40;;;;;;;15.13;2.40;;;;;;;;;;5071437;28;20447;-70
2022/03/23 14:19:08;;;;;;;14.83;2.40;;;;;;;;;;5070799;28;21033;-70
2022/03/23 14:21:38;;;;;;;14.20;2.30;;;;;;;;;;5070192;28;20462;-70
2022/03/23 14:24:06;;;;;;;13.50;2.00;;;;;;;;;;5071039;28;20463;-70
2022/03/23 14:26:36;;;;;;;13.57;1.90;;;;;;;;;;5071010;28;20518;-70
2022/03/23 14:29:20;;;;;;;14.60;2.40;;;;;;;;;;5070691;28;20454;-70
2022/03/23 14:31:48;;;;;;;15.50;2.43;;;;;;;;;;5070850;28;20541;-70
2022/03/23 14:34:15;;;;;;;13.60;2.07;;;;;;;;;;5070762;28;20451;-70
2022/03/23 14:36:45;;;;;;;17.00;2.40;;;;;;;;;;5070896;28;20450;-70
2022/03/23 14:39:21;;;;;;;14.30;2.13;;;;;;;;;;5070361;28;20517;-70
2022/03/23 14:41:58;;;;;;;14.40;2.50;;;;;;;;;;5071104;28;20435;-70
2022/03/23 14:44:35;;;;;;;14.43;2.20;;;;;;;;;;5070778;28;20458;-70
2022/03/23 14:47:02;;;;;;;20.87;2.37;;;;;;;;;;5070592;28;20528;-70
2022/03/23 14:49:36;;;;;;;14.37;2.37;;;;;;;;;;5070494;28;20455;-70
2022/03/23 14:52:06;;;;;;;18.53;3.30;;;;;;;;;;5070921;28;20485;-71
2022/03/23 14:54:37;;;;;;;15.33;2.43;;;;;;;;;;5070751;28;20448;-70
2022/03/23 14:57:05;;;;;;;13.97;2.23;;;;;;;;;;5070335;28;20987;-70
2022/03/23 14:59:42;;;;;;;13.87;2.37;;;;;;;;;;5063930;28;20482;-70
2022/03/23 15:02:09;;;;;;;14.70;2.40;;;;;;;;;;5064405;28;20454;-70
2022/03/23 15:04:37;;;;;;;16.77;2.33;;;;;;;;;;5063693;28;20474;-70
2022/03/23 15:15:24;;;;;;;14.50;2.67;;;;;;;;;;5070336;28;20441;-70
2022/03/23 15:17:53;;;;;;;15.00;2.67;;;;;;;;;;5070388;28;20450;-70
2022/03/23 15:20:20;;;;;;;14.10;2.70;;;;;;;;;;5070389;28;20447;-70
2022/03/23 15:22:51;;;;;;;15.83;3.50;;;;;;;;;;5070151;28;20453;-70